createdAt,value
2017-05-01T10:17:10.564Z,1.82
2017-05-01T10:27:20.593Z,1.68
2017-05-01T10:29:49.947Z,1.42
2017-05-01T10:32:19.303Z,1.90
2017-05-01T10:34:49.333Z,1.90
2017-05-01T10:37:18.011Z,1.50
2017-05-01T10:39:48.208Z,2.14
2017-05-01T10:42:17.601Z,6.64
2017-05-01T10:44:47.731Z,6.92
2017-05-01T10:47:17.953Z,5.88
2017-05-01T10:49:48.225Z,5.70
2017-05-01T10:52:17.630Z,9.74
2017-05-01T10:54:47.989Z,6.30
2017-05-01T11:01:14.261Z,4.42
2017-05-01T11:03:41.516Z,3.68
2017-05-01T11:06:10.613Z,3.56
2017-05-01T11:11:07.885Z,3.50
2017-05-01T11:13:38.863Z,2.76
2017-05-01T11:16:09.847Z,2.44
2017-05-01T11:18:41.671Z,2.72
2017-05-01T11:21:11.775Z,2.58
2017-05-01T11:23:42.742Z,2.86
2017-05-01T11:27:15.673Z,2.42
2017-05-01T11:29:48.816Z,3.15
2017-05-01T11:39:52.768Z,2.22
2017-05-01T11:49:56.766Z,2.10
2017-05-01T11:57:31.621Z,1.80
2017-05-01T12:14:55.764Z,1.60
2017-05-01T12:17:28.785Z,1.90
2017-05-01T12:22:31.843Z,1.40
2017-05-01T12:25:35.349Z,1.80
2017-05-01T12:28:04.624Z,1.76
2017-05-01T12:30:34.600Z,1.70
2017-05-01T12:33:04.645Z,1.60
2017-05-01T12:35:34.629Z,1.78
2017-05-01T12:38:04.589Z,1.30
2017-05-01T12:42:57.266Z,1.75
2017-05-01T12:45:23.261Z,1.70
2017-05-01T12:47:49.151Z,1.50
2017-05-01T12:50:15.004Z,1.50
2017-05-01T12:52:40.834Z,1.32
2017-05-01T12:55:06.779Z,1.32
2017-05-01T12:57:32.638Z,1.20
2017-05-01T12:59:58.493Z,1.18
2017-05-01T13:02:24.449Z,1.08
2017-05-01T13:04:50.381Z,1.60
2017-05-01T13:07:16.242Z,1.38
2017-05-01T13:09:42.189Z,1.20
2017-05-01T13:12:08.062Z,1.20
2017-05-01T13:14:33.943Z,1.62
2017-05-01T13:16:59.915Z,1.26
2017-05-01T13:19:25.945Z,1.36
2017-05-01T13:21:51.837Z,1.50
2017-05-01T13:24:17.673Z,1.32
2017-05-01T13:26:43.568Z,1.34
2017-05-01T13:29:09.602Z,1.30
2017-05-01T13:31:35.511Z,1.16
2017-05-01T13:34:01.345Z,1.62
2017-05-01T13:36:27.203Z,1.34
2017-05-01T13:38:53.051Z,1.00
2017-05-01T13:41:19.000Z,1.04
2017-05-01T13:43:44.851Z,1.20
2017-05-01T13:46:10.697Z,1.20
2017-05-01T13:48:36.620Z,1.24
2017-05-01T13:51:02.467Z,1.20
2017-05-01T13:53:28.452Z,1.30
2017-05-01T13:55:54.323Z,1.40
2017-05-01T13:58:20.170Z,1.16
2017-05-01T14:00:46.042Z,1.18
2017-05-01T14:03:11.972Z,1.20
2017-05-01T14:05:38.016Z,1.30
2017-05-01T14:08:03.923Z,1.22
2017-05-01T14:10:29.843Z,1.38
2017-05-01T14:12:55.781Z,1.32
2017-05-01T14:15:21.686Z,1.00
2017-05-01T14:17:47.633Z,1.12
2017-05-01T14:20:33.854Z,1.16
2017-05-01T14:22:59.775Z,1.30
2017-05-01T14:25:25.706Z,1.14
2017-05-01T14:27:51.569Z,1.10
2017-05-01T14:30:17.409Z,1.10
2017-05-01T14:32:43.331Z,1.12
2017-05-01T14:35:09.202Z,1.16
2017-05-01T14:37:35.072Z,1.10
2017-05-01T14:40:01.087Z,1.24
2017-05-01T14:42:26.954Z,1.18
2017-05-01T14:44:52.831Z,0.96
2017-05-01T14:47:18.810Z,1.20
2017-05-01T14:49:44.714Z,1.48
2017-05-01T14:52:11.319Z,1.24
2017-05-01T14:54:37.207Z,1.18
2017-05-01T14:57:03.071Z,1.14
2017-05-01T14:59:28.930Z,1.20
2017-05-01T15:01:54.833Z,1.10
2017-05-01T15:04:20.691Z,1.04
2017-05-01T15:06:46.602Z,1.20
2017-05-01T15:09:12.661Z,1.32
2017-05-01T15:11:38.502Z,1.08
2017-05-01T15:14:04.367Z,1.28
2017-05-01T15:16:30.259Z,12.78
2017-05-01T15:18:56.118Z,8.76
2017-05-01T15:21:21.966Z,31.44
2017-05-01T15:23:47.843Z,18.62
2017-05-01T15:26:13.697Z,13.92
2017-05-01T15:28:39.584Z,9.92
2017-05-01T15:31:05.545Z,7.08
2017-05-01T15:33:31.386Z,7.36
2017-05-01T15:35:57.247Z,8.54
2017-05-01T15:38:23.087Z,6.70
2017-05-01T15:40:48.979Z,5.66
2017-05-01T15:43:14.870Z,5.08
2017-05-01T15:45:40.720Z,4.60
2017-05-01T15:48:06.583Z,4.78
2017-05-01T15:50:32.542Z,5.18
2017-05-01T15:52:58.376Z,4.86
2017-05-01T15:55:24.215Z,4.68
2017-05-01T15:57:50.135Z,4.76
2017-05-01T16:00:15.977Z,4.18
2017-05-01T16:02:41.822Z,4.44
2017-05-01T16:05:08.072Z,3.32
2017-05-01T16:07:33.854Z,4.12
2017-05-01T16:09:59.698Z,3.46
2017-05-01T16:12:26.293Z,3.36
2017-05-01T16:14:52.124Z,3.80
2017-05-01T16:17:17.967Z,36.16
2017-05-01T16:19:43.908Z,33.30
2017-05-01T16:22:09.756Z,19.08
2017-05-01T16:24:35.598Z,33.40
2017-05-01T16:27:01.456Z,14.04
2017-05-01T16:29:27.319Z,57.78
2017-05-01T16:31:53.189Z,19.42
2017-05-01T16:34:19.046Z,13.82
2017-05-01T16:36:44.920Z,12.54
2017-05-01T16:39:10.772Z,10.86
2017-05-01T16:41:36.637Z,15.38
2017-05-01T16:44:02.500Z,16.62
2017-05-01T16:46:28.350Z,13.24
2017-05-01T16:48:54.198Z,11.38
2017-05-01T16:51:20.077Z,9.24
2017-05-01T16:53:45.966Z,9.86
2017-05-01T16:56:11.794Z,7.18
2017-05-01T16:58:38.519Z,7.28
2017-05-01T17:01:04.378Z,5.60
2017-05-01T17:03:30.213Z,5.20
2017-05-01T17:05:56.167Z,4.40
2017-05-01T17:08:22.054Z,4.80
2017-05-01T17:10:47.925Z,4.40
2017-05-01T17:13:13.804Z,4.42
2017-05-01T17:15:39.808Z,4.20
2017-05-01T17:18:05.660Z,4.38
2017-05-01T17:20:31.537Z,2.90
2017-05-01T17:22:57.387Z,2.34
2017-05-01T17:25:23.237Z,1.82
2017-05-01T17:27:49.094Z,2.58
2017-05-01T17:30:15.078Z,2.50
2017-05-01T17:32:41.226Z,2.46
2017-05-01T17:35:07.111Z,2.24
2017-05-01T17:37:33.063Z,2.06
2017-05-01T17:39:58.918Z,2.26
2017-05-01T17:42:24.812Z,2.20
2017-05-01T17:44:50.658Z,2.24
2017-05-01T17:47:16.538Z,2.08
2017-05-01T17:49:42.386Z,2.18
2017-05-01T17:52:08.271Z,2.30
2017-05-01T17:54:34.150Z,2.36
2017-05-01T17:56:59.994Z,2.60
2017-05-01T17:59:25.927Z,2.44
2017-05-01T18:01:51.766Z,2.26
2017-05-01T18:04:17.693Z,2.50
2017-05-01T18:06:43.553Z,2.36
2017-05-01T18:09:09.403Z,2.78
2017-05-01T18:11:35.379Z,2.34
2017-05-01T18:14:01.262Z,2.70
2017-05-01T18:16:33.267Z,2.62
2017-05-01T18:19:05.370Z,3.30
2017-05-01T18:21:37.383Z,3.32
2017-05-01T18:24:09.542Z,2.90
2017-05-01T18:26:41.459Z,2.76
2017-05-01T18:29:13.447Z,3.06
2017-05-01T18:31:45.388Z,2.82
2017-05-01T18:34:17.539Z,3.02
2017-05-01T18:36:49.378Z,2.98
2017-05-01T18:39:22.057Z,2.84
2017-05-01T18:41:53.922Z,3.20
2017-05-01T18:44:26.003Z,2.58
2017-05-01T18:46:58.047Z,2.60
2017-05-01T18:49:29.922Z,2.78
2017-05-01T18:52:02.009Z,2.42
2017-05-01T18:54:34.274Z,2.22
2017-05-01T18:57:06.417Z,2.40
2017-05-01T18:59:38.610Z,2.84
2017-05-01T19:02:10.798Z,2.34
2017-05-01T19:04:43.043Z,2.26
2017-05-01T19:07:15.383Z,1.80
2017-05-01T19:09:47.523Z,2.10
2017-05-01T19:12:19.777Z,1.90
2017-05-01T19:14:52.019Z,2.00
2017-05-01T19:17:24.989Z,1.96
2017-05-01T19:19:57.425Z,1.70
2017-05-01T19:22:29.619Z,1.72
2017-05-01T19:25:01.936Z,2.00
2017-05-01T19:27:34.113Z,2.12
2017-05-01T19:30:06.392Z,1.80
2017-05-01T19:32:38.711Z,2.06
2017-05-01T19:35:11.143Z,1.80
2017-05-01T19:37:43.965Z,1.78
2017-05-01T19:40:17.125Z,1.74
2017-05-01T19:42:51.444Z,2.20
2017-05-01T19:45:24.172Z,1.90
2017-05-01T19:47:56.753Z,1.80
2017-05-01T19:50:29.045Z,2.10
2017-05-01T19:53:02.250Z,1.74
2017-05-01T19:55:35.473Z,2.10
2017-05-01T19:58:08.406Z,1.88
2017-05-01T20:00:40.570Z,2.02
2017-05-01T20:03:13.024Z,1.82
2017-05-01T20:05:45.207Z,1.64
2017-05-01T20:08:18.435Z,1.50
2017-05-01T20:10:52.449Z,1.70
2017-05-01T20:13:25.343Z,1.90
2017-05-01T20:15:58.456Z,1.86
2017-05-01T20:18:31.096Z,1.80
2017-05-01T20:21:04.446Z,1.80
2017-05-01T20:23:36.838Z,2.00
2017-05-01T20:26:09.156Z,2.12
2017-05-01T20:28:41.259Z,2.42
2017-05-01T20:31:13.579Z,1.70
2017-05-01T20:33:45.763Z,2.18
2017-05-01T20:36:17.922Z,2.00
2017-05-01T20:38:50.188Z,2.30
2017-05-01T20:41:22.334Z,2.24
2017-05-01T20:43:54.615Z,2.48
2017-05-01T20:46:26.747Z,2.00
2017-05-01T20:48:58.899Z,1.80
2017-05-01T20:51:31.121Z,2.30
2017-05-01T20:54:03.279Z,1.82
2017-05-01T20:56:35.550Z,1.68
2017-05-01T20:59:07.799Z,1.76
2017-05-01T21:01:40.038Z,2.00
2017-05-01T21:04:12.203Z,1.80
2017-05-01T21:06:44.465Z,1.92
2017-05-01T21:09:14.627Z,1.42
2017-05-01T21:11:40.515Z,1.52
2017-05-01T21:14:06.368Z,1.96
2017-05-01T21:16:32.337Z,2.06
2017-05-01T21:18:58.238Z,1.96
2017-05-01T21:21:24.106Z,1.84
2017-05-01T21:23:49.938Z,2.06
2017-05-01T21:26:15.790Z,2.30
2017-05-01T21:28:41.662Z,1.80
2017-05-01T21:31:07.568Z,1.78
2017-05-01T21:33:33.399Z,2.10
2017-05-01T21:35:59.344Z,1.84
2017-05-01T21:38:25.214Z,2.00
2017-05-01T21:40:51.034Z,2.06
2017-05-01T21:43:16.895Z,2.22
2017-05-01T21:45:42.742Z,2.02
2017-05-01T21:48:09.427Z,1.86
2017-05-01T21:50:35.297Z,1.96
2017-05-01T21:53:01.897Z,2.24
2017-05-01T21:55:27.802Z,2.12
2017-05-01T21:57:53.671Z,1.94
2017-05-01T22:00:20.322Z,1.96
2017-05-01T22:02:46.311Z,2.76
2017-05-01T22:05:12.142Z,2.54
2017-05-01T22:07:38.775Z,2.24
2017-05-01T22:10:04.679Z,2.30
2017-05-01T22:12:30.517Z,2.80
2017-05-01T22:14:56.431Z,2.24
2017-05-01T22:17:23.106Z,3.04
2017-05-01T22:19:49.761Z,2.56
2017-05-01T22:22:15.609Z,3.04
2017-05-01T22:24:41.458Z,2.92
2017-05-01T22:27:08.912Z,2.76
2017-05-01T22:29:34.847Z,3.40
2017-05-01T22:32:01.446Z,3.00
2017-05-01T22:34:27.328Z,3.06
2017-05-01T22:36:54.079Z,2.70
2017-05-01T22:39:20.711Z,2.56
2017-05-01T22:41:46.567Z,2.84
2017-05-01T22:44:12.557Z,2.78
2017-05-01T22:46:38.442Z,2.78
2017-05-01T22:49:05.059Z,2.24
2017-05-01T22:51:30.955Z,2.20
2017-05-01T22:53:56.829Z,1.92
2017-05-01T22:56:23.518Z,2.10
2017-05-01T22:58:49.384Z,1.74
2017-05-01T23:01:15.207Z,1.80
2017-05-01T23:03:41.052Z,1.80
2017-05-01T23:06:06.918Z,1.96
2017-05-01T23:08:32.850Z,1.90
2017-05-01T23:10:58.699Z,1.78
2017-05-01T23:13:24.558Z,1.80
2017-05-01T23:15:50.506Z,1.60
2017-05-01T23:18:16.358Z,1.86
2017-05-01T23:20:42.304Z,1.60
2017-05-01T23:23:08.158Z,2.10
2017-05-01T23:25:33.996Z,1.80
2017-05-01T23:27:59.867Z,1.70
2017-05-01T23:30:25.710Z,1.48
2017-05-01T23:32:51.642Z,1.90
2017-05-01T23:35:17.542Z,1.84
2017-05-01T23:37:43.466Z,1.80
2017-05-01T23:40:09.294Z,2.02
2017-05-01T23:42:35.165Z,1.90
2017-05-01T23:45:01.138Z,1.92
2017-05-01T23:47:27.034Z,1.52
2017-05-01T23:49:52.919Z,1.66
2017-05-01T23:52:18.771Z,1.68
2017-05-01T23:54:44.655Z,1.72
2017-05-01T23:57:10.611Z,1.82
2017-05-01T23:59:36.459Z,1.64
